Whitmer, West Virginia
Current Conditions -  °F | °C
As of 8:40 AM on Friday 28 Nov 2014 (Local Time) from KEKN Reporting Station
Light Snow Light Snow  
Wind Chill: 14°   Ceiling: 2400
Heat Index: 23°   Visibility: 1.2mi
Dew Point: 18°   Wind: 8mph
Humidity: 81%   Direction: 310°NW
Pressure: 30.29"   Gusts: NA
Location:  38.81°N, 79.55°W
Report Text: KEKN 281340Z AUTO 31007KT 1 1/4SM -SN FEW017 BKN024 OVC042 M05/M08 A3029 RMK AO2 SNE1253B18 P0000 T10501078 TSNO
Loading
Personal Weather Stations






























Interactive Weather Map New forecast layout! Learn more

10-Day Weather Forecast

Advertisements
Track Severe Weather on mobile